Time;durP1;ratioP1;P1;durP2;ratioP2;P2;SDS_P1;SDS_P2;PMS_P1;PMS_P2;Temp;Humidity;BMP_temperature;BMP_pressure;BME280_temperature;BME280_humidity;BME280_pressure;Samples;Min_cycle;Max_cycle;Signal;HPM_P1;HPM_P2
2022/09/05 00:02:32;;;;;;;13.98;8.65;;;;;;;19.62;58.84;101925.78;5193333;28;20071;-44
2022/09/05 00:05:52;;;;;;;10.65;8.30;;;;;;;19.64;58.61;101936.31;5151438;28;20427;-42
2022/09/05 00:08:31;;;;;;;12.20;8.85;;;;;;;19.52;58.88;101927.91;5171321;28;20059;-45
2022/09/05 00:11:11;;;;;;;13.88;8.48;;;;;;;19.50;58.70;101929.91;5189961;28;20135;-43
2022/09/05 00:13:51;;;;;;;12.20;7.85;;;;;;;19.53;58.72;101933.06;5195557;28;20055;-42
2022/09/05 00:16:55;;;;;;;9.45;8.07;;;;;;;19.48;58.84;101932.78;5197069;28;20127;-43
2022/09/05 00:19:40;;;;;;;18.52;8.82;;;;;;;19.44;58.87;101936.00;5186706;28;20360;-46
2022/09/05 00:22:27;;;;;;;7.85;6.15;;;;;;;19.43;59.06;101935.16;5193318;28;20498;-41
2022/09/05 00:25:49;;;;;;;13.68;8.35;;;;;;;19.40;58.88;101938.22;5193390;28;20048;-41
2022/09/05 00:28:46;;;;;;;8.68;7.18;;;;;;;19.35;59.04;101936.09;5192630;28;20135;-42
2022/09/05 00:31:44;;;;;;;10.52;7.00;;;;;;;19.27;59.20;101925.44;5192668;28;20398;-49
2022/09/05 00:34:50;;;;;;;11.02;7.32;;;;;;;19.27;58.92;101925.44;5193383;28;20123;-39
2022/09/05 00:37:34;;;;;;;10.60;7.90;;;;;;;19.21;58.96;101925.31;5192581;28;20102;-39
2022/09/05 00:40:27;;;;;;;11.07;7.13;;;;;;;19.19;59.04;101933.53;5192925;28;21093;-42
2022/09/05 00:43:05;;;;;;;11.18;7.93;;;;;;;19.11;59.13;101922.91;5192294;28;20461;-43
2022/09/05 00:45:43;;;;;;;11.50;6.78;;;;;;;19.05;59.22;101927.13;5191019;28;20292;-48
2022/09/05 00:48:25;;;;;;;11.30;7.30;;;;;;;18.98;59.19;101926.16;5196643;28;20295;-42
2022/09/05 00:51:11;;;;;;;12.77;6.90;;;;;;;19.00;59.24;101923.31;5192999;28;20036;-40
2022/09/05 00:53:59;;;;;;;10.48;7.07;;;;;;;18.94;59.32;101916.00;5194880;28;20056;-43
2022/09/05 00:56:51;;;;;;;9.32;7.70;;;;;;;18.94;59.30;101924.03;5187244;28;20405;-43
2022/09/05 00:59:51;;;;;;;14.88;7.78;;;;;;;18.89;59.39;101922.72;5192460;28;20044;-41
2022/09/05 01:03:20;;;;;;;10.35;7.45;;;;;;;18.87;59.20;101926.59;5192571;28;20040;-44
2022/09/05 01:06:17;;;;;;;8.15;6.80;;;;;;;18.78;59.24;101920.44;5167742;28;20056;-43
2022/09/05 01:09:10;;;;;;;11.13;7.00;;;;;;;18.82;59.24;101928.94;5172051;28;20040;-36
2022/09/05 01:12:01;;;;;;;10.15;6.35;;;;;;;18.71;59.27;101913.28;5165823;28;20443;-39
2022/09/05 01:14:56;;;;;;;7.57;6.68;;;;;;;18.77;59.38;101928.66;5164053;28;20118;-40
2022/09/05 01:18:01;;;;;;;8.45;6.35;;;;;;;18.75;59.48;101928.00;5170514;28;20465;-41
2022/09/05 01:20:49;;;;;;;8.13;6.85;;;;;;;18.72;59.32;101931.81;5127380;28;20045;-43
2022/09/05 01:24:05;;;;;;;8.00;6.40;;;;;;;18.69;59.19;101921.47;5169121;28;20057;-41
2022/09/05 01:27:47;;;;;;;8.98;6.70;;;;;;;18.64;59.47;101926.50;5091747;28;20038;-42
2022/09/05 01:30:23;;;;;;;10.77;6.05;;;;;;;18.57;59.49;101923.72;5155931;28;20045;-38
2022/09/05 01:33:07;;;;;;;8.32;6.13;;;;;;;18.60;59.12;101927.88;5162870;28;20413;-45
2022/09/05 01:36:45;;;;;;;10.13;6.00;;;;;;;18.57;59.32;101925.56;5166573;28;20045;-41
2022/09/05 01:39:25;;;;;;;9.07;5.85;;;;;;;18.48;59.38;101923.94;5160684;28;20048;-43
2022/09/05 01:42:07;;;;;;;7.78;6.25;;;;;;;18.45;59.44;101930.47;5157412;28;20076;-41
2022/09/05 01:44:55;;;;;;;7.68;5.63;;;;;;;18.45;59.45;101927.78;5156854;28;20238;-43
2022/09/05 01:47:48;;;;;;;6.60;5.20;;;;;;;18.44;59.42;101929.63;5166345;28;20080;-44
2022/09/05 01:50:39;;;;;;;8.65;4.88;;;;;;;18.47;59.27;101938.34;5171163;28;20628;-43
2022/09/05 01:53:31;;;;;;;6.15;4.53;;;;;;;18.49;59.17;101922.91;5171547;28;20477;-40
2022/09/05 01:56:40;;;;;;;10.32;4.40;;;;;;;18.57;59.21;101926.41;5159323;28;20045;-45
2022/09/05 01:59:27;;;;;;;10.13;4.60;;;;;;;18.55;58.96;101922.22;5174792;28;20045;-40
2022/09/05 02:02:21;;;;;;;5.15;3.72;;;;;;;18.53;58.77;101922.41;5169472;28;20112;-43
2022/09/05 02:05:50;;;;;;;10.73;4.82;;;;;;;18.63;58.76;101932.88;5175420;28;20135;-41
2022/09/05 02:08:48;;;;;;;7.82;4.53;;;;;;;18.60;58.78;101922.53;5153839;28;20551;-41
2022/09/05 02:11:40;;;;;;;11.93;4.57;;;;;;;18.57;58.64;101917.53;5192980;28;20568;-49
2022/09/05 02:14:35;;;;;;;9.15;4.38;;;;;;;18.52;58.76;101918.09;5202767;28;20051;-40
2022/09/05 02:17:26;;;;;;;4.68;4.22;;;;;;;18.48;58.63;101914.06;5187615;28;20075;-45
2022/09/05 02:20:15;;;;;;;5.75;4.13;;;;;;;18.48;58.53;101919.41;5197670;28;20060;-38
2022/09/05 02:23:00;;;;;;;6.43;4.22;;;;;;;18.46;58.56;101915.25;5193776;28;20510;-42
2022/09/05 02:26:17;;;;;;;12.93;4.10;;;;;;;18.49;58.56;101922.91;5198442;28;20405;-42
2022/09/05 02:28:59;;;;;;;4.53;3.80;;;;;;;18.48;58.22;101921.25;5196021;28;20048;-42
2022/09/05 02:31:41;;;;;;;7.53;4.22;;;;;;;18.48;58.37;101915.91;5189222;28;20064;-40
2022/09/05 02:34:23;;;;;;;9.70;4.03;;;;;;;18.44;58.53;101915.44;5193136;28;20492;-39
2022/09/05 02:37:07;;;;;;;7.13;4.18;;;;;;;18.46;58.26;101912.56;5179054;28;20287;-42
2022/09/05 02:39:47;;;;;;;4.97;3.92;;;;;;;18.46;58.26;101920.59;5190547;28;20064;-42
2022/09/05 02:43:20;;;;;;;7.50;5.07;;;;;;;18.46;58.21;101924.13;5206222;28;20267;-40
2022/09/05 02:46:04;;;;;;;6.03;4.05;;;;;;;18.43;58.04;101927.97;5193217;28;20333;-43
2022/09/05 02:48:53;;;;;;;6.75;4.85;;;;;;;18.41;58.05;101927.31;5185833;28;20036;-47
2022/09/05 02:51:32;;;;;;;6.88;4.97;;;;;;;18.43;57.95;101930.66;5182170;28;20071;-40
2022/09/05 02:54:10;;;;;;;6.55;4.72;;;;;;;18.43;58.01;101927.16;5205987;28;20102;-45
2022/09/05 02:56:58;;;;;;;8.60;4.60;;;;;;;18.43;58.02;101933.34;5190691;28;20473;-41
2022/09/05 02:59:46;;;;;;;12.70;4.85;;;;;;;18.42;57.97;101925.47;5192635;28;20053;-40
2022/09/05 03:02:29;;;;;;;7.75;4.82;;;;;;;18.39;57.96;101936.50;5192948;28;20041;-40
2022/09/05 03:05:09;;;;;;;8.98;5.32;;;;;;;18.31;57.96;101926.69;5186576;28;20048;-39
2022/09/05 03:08:15;;;;;;;12.32;4.60;;;;;;;18.31;57.96;101933.91;5192336;28;20049;-41
2022/09/05 03:12:02;;;;;;;9.80;4.80;;;;;;;18.27;58.00;101932.56;5186739;28;20143;-44
2022/09/05 03:15:21;;;;;;;7.00;4.13;;;;;;;18.20;58.14;101927.06;5193942;28;20170;-41
2022/09/05 03:18:36;;;;;;;8.10;4.57;;;;;;;18.20;58.01;101930.56;5138284;28;20142;-38
2022/09/05 03:21:58;;;;;;;6.63;3.90;;;;;;;18.19;58.22;101925.41;5192184;28;20298;-40
2022/09/05 03:25:12;;;;;;;12.57;5.85;;;;;;;18.14;57.89;101923.25;5193835;28;20072;-44
2022/09/05 03:28:07;;;;;;;;;;;;;;;18.21;57.97;101928.75;5194434;28;20044;-43
2022/09/05 03:31:01;;;;;;;7.82;4.53;;;;;;;18.17;57.89;101928.25;5187251;28;19920;-41
2022/09/05 03:34:02;;;;;;;6.35;4.47;;;;;;;18.16;57.74;101909.72;5205846;28;20052;-42
2022/09/05 03:37:44;;;;;;;6.38;4.30;;;;;;;18.26;57.39;101920.22;5193746;28;20627;-42
2022/09/05 03:40:59;;;;;;;12.40;3.90;;;;;;;18.29;57.47;101926.03;5021656;28;20162;-40
2022/09/05 03:44:03;;;;;;;7.93;4.32;;;;;;;18.28;57.57;101918.19;5179818;28;20465;-39
2022/09/05 03:47:00;;;;;;;5.40;4.03;;;;;;;18.34;57.32;101931.72;5196050;28;21107;-41
2022/09/05 03:49:53;;;;;;;9.43;3.70;;;;;;;18.37;57.20;101926.00;5197468;28;20515;-43
2022/09/05 03:52:31;;;;;;;;;;;;;;;18.40;57.41;101914.97;5198839;28;20144;-43
2022/09/05 03:55:26;;;;;;;10.57;4.50;;;;;;;18.36;57.33;101910.13;5198398;28;20430;-42
2022/09/05 03:58:28;;;;;;;6.25;3.38;;;;;;;18.44;57.25;101920.78;5197959;28;20370;-41
2022/09/05 04:01:07;;;;;;;13.48;4.18;;;;;;;18.46;56.96;101915.25;5198028;28;20480;-44
2022/09/05 04:03:45;;;;;;;8.48;3.72;;;;;;;18.48;57.22;101924.78;5196897;28;20101;-43
2022/09/05 04:06:26;;;;;;;6.45;2.88;;;;;;;18.46;57.17;101925.94;5203696;28;20098;-42
2022/09/05 04:09:09;;;;;;;9.43;4.15;;;;;;;18.38;57.11;101922.31;5201798;28;20049;-44
2022/09/05 04:11:47;;;;;;;8.48;3.40;;;;;;;18.37;57.10;101934.03;5196955;27;20436;-46
2022/09/05 04:14:26;;;;;;;5.97;3.25;;;;;;;18.38;57.30;101927.66;5197037;28;20056;-47
2022/09/05 04:17:06;;;;;;;8.25;3.53;;;;;;;18.38;57.11;101918.81;5197506;28;20501;-40
2022/09/05 04:19:44;;;;;;;7.10;3.78;;;;;;;18.32;57.24;101920.34;5193312;28;20404;-41
2022/09/05 04:22:22;;;;;;;7.43;4.18;;;;;;;18.25;57.26;101916.72;5200214;28;20116;-41
2022/09/05 04:25:04;;;;;;;10.60;4.25;;;;;;;18.26;57.24;101914.84;5195801;28;20377;-40
2022/09/05 04:27:46;;;;;;;7.03;3.90;;;;;;;18.25;57.34;101927.41;5195438;28;20459;-44
2022/09/05 04:30:38;;;;;;;5.95;4.30;;;;;;;18.19;57.46;101926.25;5198921;28;20332;-41
2022/09/05 04:33:21;;;;;;;8.02;4.28;;;;;;;18.13;57.37;101921.59;5194612;28;20048;-35
2022/09/05 04:35:59;;;;;;;7.25;3.83;;;;;;;18.10;57.39;101923.78;5196306;28;20398;-41
2022/09/05 04:38:38;;;;;;;10.13;4.38;;;;;;;18.09;57.33;101930.16;5193182;28;20131;-41
2022/09/05 04:41:13;;;;;;;8.77;4.60;;;;;;;17.97;57.51;101910.97;5198286;28;20063;-45
2022/09/05 04:43:50;;;;;;;4.40;3.90;;;;;;;18.01;57.52;101916.81;5200395;28;20118;-44
2022/09/05 04:46:27;;;;;;;4.63;4.22;;;;;;;17.97;57.53;101922.50;5196335;28;20074;-41
2022/09/05 04:49:07;;;;;;;7.40;4.25;;;;;;;18.00;57.63;101924.00;5197770;28;20071;-40
2022/09/05 04:52:09;;;;;;;6.95;4.78;;;;;;;17.98;57.63;101921.47;5196767;28;20143;-43
2022/09/05 04:54:45;;;;;;;8.38;4.88;;;;;;;18.00;57.67;101925.84;5199314;28;20052;-44
2022/09/05 04:57:25;;;;;;;8.98;4.72;;;;;;;17.94;57.64;101924.69;5200179;28;20037;-42
2022/09/05 05:00:03;;;;;;;10.82;5.03;;;;;;;18.00;57.56;101937.34;5204924;28;20072;-42
2022/09/05 05:02:40;;;;;;;8.40;5.40;;;;;;;18.02;57.46;101934.50;5204644;28;20105;-40
2022/09/05 05:05:20;;;;;;;7.18;4.95;;;;;;;17.99;57.57;101919.63;5203377;28;20167;-48
2022/09/05 05:07:59;;;;;;;9.48;4.70;;;;;;;18.09;57.22;101932.81;5199531;28;20128;-42
2022/09/05 05:10:36;;;;;;;9.80;4.97;;;;;;;18.12;57.16;101927.13;5202400;28;20049;-41
2022/09/05 05:13:16;;;;;;;6.57;4.75;;;;;;;18.15;57.29;101934.81;5201042;28;20056;-42
2022/09/05 05:15:53;;;;;;;10.15;4.95;;;;;;;18.23;57.06;101936.59;5207514;28;20047;-45
2022/09/05 05:18:31;;;;;;;6.65;5.07;;;;;;;18.24;57.12;101927.56;5204836;28;20044;-43
2022/09/05 05:21:06;;;;;;;16.45;5.75;;;;;;;18.31;57.11;101936.56;5200996;28;20040;-44
2022/09/05 05:23:43;;;;;;;6.90;4.82;;;;;;;18.35;57.12;101935.22;5212350;28;20442;-45
2022/09/05 05:26:24;;;;;;;7.47;4.63;;;;;;;18.37;57.16;101927.84;5203652;28;20052;-41
2022/09/05 05:29:03;;;;;;;8.38;4.75;;;;;;;18.40;56.81;101927.50;5204072;28;20041;-40
2022/09/05 05:31:40;;;;;;;7.53;5.25;;;;;;;18.53;56.79;101926.94;5204936;28;20075;-41
2022/09/05 05:34:20;;;;;;;10.13;5.07;;;;;;;18.60;56.85;101927.88;5204449;28;20040;-42
2022/09/05 05:37:01;;;;;;;7.53;5.18;;;;;;;18.63;56.75;101928.38;5209253;28;20153;-41
2022/09/05 05:39:38;;;;;;;11.38;5.65;;;;;;;18.72;56.58;101931.81;5204548;28;20044;-39
2022/09/05 05:42:17;;;;;;;16.02;6.68;;;;;;;18.74;56.40;101918.31;5207728;28;20492;-41
2022/09/05 05:44:52;;;;;;;9.82;6.30;;;;;;;18.87;56.39;101929.25;5209815;28;20496;-44
2022/09/05 05:47:30;;;;;;;13.02;5.57;;;;;;;19.00;56.33;101934.03;5207812;28;20421;-46
2022/09/05 05:50:12;;;;;;;11.50;5.85;;;;;;;19.12;56.21;101940.63;5215157;27;20048;-46
2022/09/05 05:53:36;;;;;;;9.93;6.45;;;;;;;19.23;56.06;101942.03;5209268;28;20043;-41
2022/09/05 05:56:47;;;;;;;10.52;6.53;;;;;;;19.33;56.01;101940.78;5102325;28;20507;-43
2022/09/05 06:00:05;;;;;;;12.00;6.20;;;;;;;19.49;55.86;101939.81;5205694;28;20356;-39
2022/09/05 06:03:41;;;;;;;11.80;6.20;;;;;;;19.60;55.73;101946.56;5203218;28;20455;-44
2022/09/05 06:06:47;;;;;;;7.95;5.60;;;;;;;19.75;55.39;101939.41;5199514;28;20053;-42
2022/09/05 06:10:04;;;;;;;8.82;6.40;;;;;;;19.96;55.18;101954.75;5213234;28;20438;-45
2022/09/05 06:13:38;;;;;;;11.88;5.78;;;;;;;20.21;55.01;101958.00;5200713;28;20492;-41
2022/09/05 06:16:45;;;;;;;14.13;7.03;;;;;;;21.39;53.78;101954.16;5177705;28;20131;-40
2022/09/05 06:20:20;;;;;;;13.48;6.35;;;;;;;22.72;52.70;101959.47;5196556;28;20041;-44
2022/09/05 06:23:32;;;;;;;14.63;7.13;;;;;;;23.87;51.47;101961.00;5190147;28;20220;-39
2022/09/05 06:26:48;;;;;;;13.70;5.90;;;;;;;25.35;49.62;101957.38;5187737;28;20489;-40
2022/09/05 06:29:35;;;;;;;13.18;6.32;;;;;;;26.78;48.12;101958.09;5196355;28;20446;-42
2022/09/05 06:32:30;;;;;;;12.48;5.47;;;;;;;28.11;46.25;101956.69;5204538;28;20036;-43
2022/09/05 06:35:22;;;;;;;11.15;5.40;;;;;;;29.20;44.59;101936.69;5202471;28;20091;-40
2022/09/05 06:38:25;;;;;;;16.45;5.07;;;;;;;30.21;43.46;101949.31;5193445;28;20392;-43
2022/09/05 06:41:22;;;;;;;9.25;5.60;;;;;;;30.83;41.75;101956.25;5206231;28;20483;-42
2022/09/05 06:44:40;;;;;;;13.10;5.05;;;;;;;31.15;39.94;101951.63;5207285;28;20055;-41
2022/09/05 06:47:16;;;;;;;12.90;5.03;;;;;;;31.30;40.08;101947.38;5205973;28;20484;-41
2022/09/05 06:50:11;;;;;;;21.77;5.88;;;;;;;31.00;40.10;101943.31;5203093;28;20500;-41
2022/09/05 06:53:38;;;;;;;17.05;4.85;;;;;;;31.05;39.70;101951.53;5210842;28;20122;-42
2022/09/05 06:56:29;;;;;;;18.05;6.68;;;;;;;31.02;38.82;101957.53;5195854;28;20048;-42
2022/09/05 06:59:49;;;;;;;18.83;5.55;;;;;;;31.60;38.20;101963.16;5200651;28;20124;-41
2022/09/05 07:02:33;;;;;;;9.63;4.00;;;;;;;32.15;37.79;101959.91;5198800;28;22450;-44
2022/09/05 07:05:23;;;;;;;8.85;4.28;;;;;;;32.79;36.69;101963.34;5201223;28;20456;-47
2022/09/05 07:08:04;;;;;;;14.00;4.03;;;;;;;32.39;36.80;101964.88;5202508;28;20131;-46
2022/09/05 07:10:43;;;;;;;16.38;4.70;;;;;;;31.58;37.58;101963.41;5201332;28;20392;-42
2022/09/05 07:13:21;;;;;;;19.70;5.07;;;;;;;30.86;38.27;101972.13;5201703;28;20476;-41
2022/09/05 07:15:58;;;;;;;12.18;4.30;;;;;;;30.22;38.86;101970.84;5192397;28;20435;-46
2022/09/05 07:18:42;;;;;;;20.15;4.85;;;;;;;29.90;39.07;101961.72;5204003;28;20501;-42
2022/09/05 07:21:23;;;;;;;15.10;4.45;;;;;;;29.95;38.99;101972.66;5204311;28;20048;-44
2022/09/05 07:24:01;;;;;;;16.30;4.63;;;;;;;30.19;38.68;101971.31;5202097;28;20071;-42
2022/09/05 07:26:41;;;;;;;16.05;4.32;;;;;;;31.43;37.11;101974.22;5204732;28;20041;-42
2022/09/05 07:29:20;;;;;;;9.68;3.58;;;;;;;32.97;35.44;101976.53;5204586;28;20384;-46
2022/09/05 07:31:55;;;;;;;27.27;4.30;;;;;;;34.75;33.86;101979.00;5198714;28;20044;-47
2022/09/05 07:34:30;;;;;;;15.80;4.15;;;;;;;36.14;32.35;101980.13;5202511;28;20484;-47
2022/09/05 07:37:07;;;;;;;16.50;4.18;;;;;;;37.06;31.25;101984.31;5198492;28;20052;-41
2022/09/05 07:39:43;;;;;;;14.57;3.47;;;;;;;37.42;30.69;101975.41;5207251;28;20040;-46
2022/09/05 07:42:22;;;;;;;12.52;3.75;;;;;;;38.35;30.06;101985.41;5204517;28;20048;-46
2022/09/05 07:44:59;;;;;;;27.05;4.03;;;;;;;39.24;28.95;101995.72;5213717;28;20127;-46
2022/09/05 07:47:34;;;;;;;10.95;2.85;;;;;;;39.88;27.96;102003.66;5196548;28;20044;-43
2022/09/05 07:50:11;;;;;;;10.88;3.72;;;;;;;39.85;27.60;101996.81;5193585;28;20072;-47
2022/09/05 07:52:45;;;;;;;13.02;2.85;;;;;;;40.25;27.20;102002.28;5202576;28;20040;-48
2022/09/05 07:55:26;;;;;;;5.47;2.83;;;;;;;40.70;26.46;101998.44;5205758;28;20044;-45
2022/09/05 07:58:05;;;;;;;4.97;2.72;;;;;;;40.94;26.15;102007.00;5207109;28;20044;-49
2022/09/05 08:00:37;;;;;;;8.10;2.92;;;;;;;41.21;25.54;102005.03;5201068;28;20443;-43
2022/09/05 08:03:13;;;;;;;11.93;2.88;;;;;;;41.44;25.25;101997.25;5204712;28;20433;-45
2022/09/05 08:05:49;;;;;;;7.78;2.20;;;;;;;41.17;25.14;101988.25;5203365;28;20044;-47
2022/09/05 08:08:28;;;;;;;15.43;2.20;;;;;;;41.35;24.51;101988.19;5204187;28;20793;-46
2022/09/05 08:11:09;;;;;;;9.27;2.25;;;;;;;41.16;24.26;101970.00;5206691;28;20040;-50
2022/09/05 08:13:57;;;;;;;12.30;2.20;;;;;;;41.04;24.52;101978.19;5187229;28;20467;-44
2022/09/05 08:16:30;;;;;;;5.00;1.65;;;;;;;40.99;24.37;101975.56;5191981;28;20122;-49
2022/09/05 08:19:28;;;;;;;12.02;2.45;;;;;;;40.70;23.93;101982.63;5201703;28;20072;-44
2022/09/05 08:22:02;;;;;;;8.73;1.80;;;;;;;40.03;24.43;101980.25;5192400;28;20048;-44
2022/09/05 08:24:39;;;;;;;7.20;2.47;;;;;;;39.32;24.55;101981.13;5197172;28;20091;-43
2022/09/05 08:27:16;;;;;;;15.90;2.67;;;;;;;38.83;24.93;101969.09;5196807;28;20052;-48
2022/09/05 08:29:53;;;;;;;13.13;3.65;;;;;;;38.57;24.71;101963.38;5201105;28;20094;-44
2022/09/05 08:32:37;;;;;;;11.73;3.30;;;;;;;38.51;24.61;101970.97;5192629;28;20044;-49
2022/09/05 08:35:17;;;;;;;7.90;2.60;;;;;;;38.45;24.34;101983.25;5185357;28;20088;-48
2022/09/05 08:37:52;;;;;;;12.95;2.72;;;;;;;38.58;24.26;101978.81;5193224;28;20433;-46
2022/09/05 08:40:30;;;;;;;12.98;2.35;;;;;;;38.47;24.30;101972.72;5201409;28;20052;-47
2022/09/05 08:43:13;;;;;;;4.32;2.08;;;;;;;38.01;24.74;101970.97;5193860;28;20454;-39
2022/09/05 08:45:57;;;;;;;18.52;2.70;;;;;;;37.98;24.62;101988.13;5199233;28;20447;-45
2022/09/05 08:48:52;;;;;;;11.65;2.38;;;;;;;37.97;24.58;101989.28;5199125;28;20446;-46
2022/09/05 08:51:33;;;;;;;11.15;2.63;;;;;;;38.26;24.14;101977.88;5191951;28;20463;-46
2022/09/05 08:54:26;;;;;;;6.75;1.40;;;;;;;38.35;24.70;101986.22;5179678;28;20048;-46
2022/09/05 08:57:05;;;;;;;5.65;1.48;;;;;;;37.93;24.83;101984.66;5193154;28;20067;-43
2022/09/05 08:59:59;;;;;;;6.35;1.55;;;;;;;37.69;25.42;101984.84;5193843;28;20066;-45
2022/09/05 09:03:02;;;;;;;4.55;1.42;;;;;;;37.28;25.63;101977.31;5195143;28;20052;-34
2022/09/05 09:06:22;;;;;;;3.53;1.55;;;;;;;36.82;25.61;101967.06;5194324;28;20130;-44
2022/09/05 09:09:15;;;;;;;7.95;2.00;;;;;;;36.72;25.45;101975.50;5190258;28;20447;-43
2022/09/05 09:11:54;;;;;;;5.97;1.48;;;;;;;36.39;25.59;101967.16;5204054;28;20048;-46
2022/09/05 09:14:42;;;;;;;4.72;1.65;;;;;;;36.19;25.56;101960.84;5199478;28;20495;-47
2022/09/05 09:17:35;;;;;;;4.30;1.67;;;;;;;36.08;25.80;101964.00;5197360;28;20037;-48
2022/09/05 09:20:32;;;;;;;6.43;2.42;;;;;;;35.85;25.61;101962.91;5198181;28;20067;-51
2022/09/05 09:23:08;;;;;;;2.35;1.70;;;;;;;35.02;26.77;101964.81;5194270;28;20362;-46
2022/09/05 09:25:52;;;;;;;2.28;1.50;;;;;;;34.40;27.44;101965.22;5199906;28;20060;-47
2022/09/05 09:28:46;;;;;;;3.65;1.40;;;;;;;34.18;27.46;101962.06;5198113;28;20136;-40
2022/09/05 09:31:57;;;;;;;9.38;2.10;;;;;;;33.85;27.50;101953.41;5196514;28;20044;-48
2022/09/05 09:34:49;;;;;;;5.88;1.33;;;;;;;33.12;28.43;101933.84;5196720;28;20052;-46
2022/09/05 09:38:25;;;;;;;5.25;1.60;;;;;;;33.11;28.58;101945.84;5194176;28;20406;-46
2022/09/05 09:41:49;;;;;;;5.95;2.00;;;;;;;33.18;28.42;101949.16;5151406;28;20540;-47
2022/09/05 09:45:09;;;;;;;5.10;1.67;;;;;;;33.35;28.48;101949.66;5184693;28;20040;-44
2022/09/05 09:48:13;;;;;;;8.90;2.22;;;;;;;33.23;28.40;101924.50;5204547;28;20077;-48
2022/09/05 09:51:21;;;;;;;9.35;1.75;;;;;;;32.86;29.07;101933.81;5194729;28;20448;-48
2022/09/05 09:54:30;;;;;;;14.13;2.30;;;;;;;32.68;29.17;101934.34;5186088;28;20044;-43
2022/09/05 09:57:35;;;;;;;7.25;2.35;;;;;;;32.63;29.15;101937.88;5189119;28;20386;-47
2022/09/05 10:00:14;;;;;;;11.88;1.58;;;;;;;32.59;29.22;101932.16;5198867;28;20435;-49
2022/09/05 10:03:20;;;;;;;4.53;1.65;;;;;;;32.69;29.27;101941.47;5196515;28;20469;-49
2022/09/05 10:06:26;;;;;;;4.47;1.65;;;;;;;32.67;29.07;101933.50;5165935;28;20134;-50
2022/09/05 10:09:16;;;;;;;4.00;2.13;;;;;;;32.48;29.24;101927.75;5157310;28;20305;-48
2022/09/05 10:12:33;;;;;;;4.55;1.70;;;;;;;32.31;29.05;101930.69;5170133;28;20389;-48
2022/09/05 10:15:22;;;;;;;2.92;1.33;;;;;;;32.21;29.22;101925.22;5158928;28;20512;-50
2022/09/05 10:18:44;;;;;;;3.75;1.55;;;;;;;32.27;28.86;101929.59;5167058;28;20156;-50
2022/09/05 10:21:40;;;;;;;6.18;2.20;;;;;;;32.45;28.89;101919.28;5166206;28;20385;-47
2022/09/05 10:24:41;;;;;;;7.80;2.00;;;;;;;32.59;28.76;101923.94;5152688;28;20040;-51
2022/09/05 10:27:59;;;;;;;10.10;1.80;;;;;;;32.49;28.55;101921.22;5165366;28;20191;-47
2022/09/05 10:30:45;;;;;;;3.97;1.77;;;;;;;32.32;28.87;101920.59;5091883;28;20586;-48
2022/09/05 10:33:34;;;;;;;4.20;1.83;;;;;;;32.47;28.45;101917.91;5172711;28;20041;-52
2022/09/05 10:36:23;;;;;;;4.70;1.50;;;;;;;32.49;28.58;101915.75;5161867;28;20045;-51
2022/09/05 10:39:16;;;;;;;5.38;2.00;;;;;;;32.23;28.09;101903.88;5169157;28;20067;-51
2022/09/05 10:41:57;;;;;;;6.72;1.98;;;;;;;32.02;28.54;101911.19;5172795;28;20548;-50
2022/09/05 10:44:39;;;;;;;4.03;2.42;;;;;;;31.92;28.51;101914.72;5183272;28;20048;-53
2022/09/05 10:47:26;;;;;;;7.00;1.63;;;;;;;32.05;28.34;101905.19;5172301;28;20045;-52
2022/09/05 10:50:11;;;;;;;2.90;1.77;;;;;;;32.17;28.03;101898.69;5173442;28;20528;-48
2022/09/05 10:53:07;;;;;;;3.88;1.55;;;;;;;32.15;27.99;101907.16;5173988;28;20041;-49
2022/09/05 10:55:55;;;;;;;7.18;1.95;;;;;;;32.07;28.04;101908.50;5173079;28;20056;-48
2022/09/05 10:58:50;;;;;;;4.03;1.88;;;;;;;32.11;28.00;101903.31;5178682;28;20060;-50
2022/09/05 11:01:38;;;;;;;4.53;1.58;;;;;;;31.95;28.28;101888.78;5175513;28;21825;-48
2022/09/05 11:04:22;;;;;;;14.00;2.20;;;;;;;32.19;28.12;101899.25;5178424;28;20052;-47
2022/09/05 11:06:57;;;;;;;3.95;1.40;;;;;;;32.31;28.32;101891.63;5193573;28;20084;-49
2022/09/05 11:09:50;;;;;;;2.58;0.98;;;;;;;32.22;27.94;101899.50;5195246;28;20139;-53
2022/09/05 11:12:50;;;;;;;4.38;1.48;;;;;;;32.14;28.01;101895.38;5194446;28;20053;-52
2022/09/05 11:15:32;;;;;;;4.30;1.40;;;;;;;32.10;27.60;101888.81;5198399;28;20052;-48
2022/09/05 11:18:15;;;;;;;7.40;1.77;;;;;;;32.08;27.53;101896.47;5195393;28;20409;-47
2022/09/05 11:21:07;;;;;;;6.82;1.13;;;;;;;31.88;27.73;101894.47;5197207;28;20217;-49
2022/09/05 11:23:43;;;;;;;7.68;1.83;;;;;;;31.89;27.74;101889.84;5194005;28;20099;-53
2022/09/05 11:26:30;;;;;;;4.43;2.15;;;;;;;31.85;27.50;101878.59;5204230;28;20060;-48
2022/09/05 11:29:08;;;;;;;6.85;1.85;;;;;;;31.91;27.43;101876.75;5194199;28;20048;-45
2022/09/05 11:31:53;;;;;;;4.20;1.30;;;;;;;31.90;27.93;101880.59;5199807;28;20052;-48
2022/09/05 11:35:22;;;;;;;5.43;2.03;;;;;;;31.86;27.89;101890.34;5203116;28;20044;-48
2022/09/05 11:38:49;;;;;;;10.07;2.60;;;;;;;31.76;28.01;101893.88;5109546;28;20049;-47
2022/09/05 11:41:56;;;;;;;4.72;1.70;;;;;;;31.61;28.07;101883.69;5116349;28;20081;-47
2022/09/05 11:44:46;;;;;;;6.03;1.58;;;;;;;31.59;28.42;101893.22;5199244;28;20041;-47
2022/09/05 11:48:14;;;;;;;9.48;1.45;;;;;;;31.57;28.25;101892.69;5207738;28;20390;-52
2022/09/05 11:51:34;;;;;;;4.50;2.28;;;;;;;31.55;27.91;101895.69;5209411;28;20413;-49
2022/09/05 11:55:00;;;;;;;3.63;1.15;;;;;;;31.85;27.35;101889.53;5180487;28;20049;-47
2022/09/05 11:57:47;;;;;;;6.10;1.92;;;;;;;32.21;26.94;101878.75;5201401;28;20040;-49
2022/09/05 12:00:23;;;;;;;9.43;1.40;;;;;;;32.31;26.41;101883.41;5205945;28;20063;-45
2022/09/05 12:03:51;;;;;;;1.65;1.20;;;;;;;32.36;26.21;101886.97;5189669;28;20478;-43
2022/09/05 12:07:25;;;;;;;3.88;1.50;;;;;;;32.60;26.39;101890.03;5199256;28;20459;-47
2022/09/05 12:10:16;;;;;;;3.15;1.58;;;;;;;32.71;26.18;101870.91;5113448;28;20046;-46
2022/09/05 12:13:06;;;;;;;2.83;0.90;;;;;;;32.75;25.58;101864.59;5110674;28;20054;-46
2022/09/05 12:15:44;;;;;;;12.20;1.40;;;;;;;32.72;25.58;101880.75;5189082;28;20044;-50
2022/09/05 12:18:27;;;;;;;2.63;1.10;;;;;;;32.55;25.75;101865.44;5195597;28;20136;-48
2022/09/05 12:21:17;;;;;;;4.78;1.15;;;;;;;32.43;26.14;101867.56;5184769;28;20374;-52
2022/09/05 12:24:02;;;;;;;7.70;1.38;;;;;;;32.35;26.40;101859.91;5185789;28;20461;-51
2022/09/05 12:26:41;;;;;;;6.35;1.77;;;;;;;32.50;26.43;101865.41;5184997;28;20049;-54
2022/09/05 12:29:18;;;;;;;4.43;1.50;;;;;;;32.57;26.41;101867.88;5201082;28;20515;-50
2022/09/05 12:31:56;;;;;;;7.10;1.42;;;;;;;32.58;26.69;101869.50;5203421;28;20056;-50
2022/09/05 12:34:49;;;;;;;2.50;1.63;;;;;;;32.58;26.58;101870.34;5195271;28;20126;-47
2022/09/05 12:37:31;;;;;;;3.28;1.83;;;;;;;32.72;26.62;101875.25;5190637;28;20520;-51
2022/09/05 12:40:11;;;;;;;3.88;1.48;;;;;;;32.63;26.46;101868.69;5185994;28;20053;-50
2022/09/05 12:42:52;;;;;;;3.05;1.40;;;;;;;32.51;26.69;101874.44;5172560;28;20048;-50
2022/09/05 12:45:32;;;;;;;5.57;1.55;;;;;;;32.48;27.10;101870.31;5191710;28;20068;-49
2022/09/05 12:48:12;;;;;;;8.98;1.45;;;;;;;32.76;26.86;101876.34;5189196;28;20102;-52
2022/09/05 12:50:55;;;;;;;2.90;1.23;;;;;;;32.90;26.82;101863.75;5192492;28;20048;-50
2022/09/05 12:53:41;;;;;;;3.95;1.83;;;;;;;32.99;26.85;101867.63;5200987;28;20470;-48
2022/09/05 12:56:28;;;;;;;3.65;1.85;;;;;;;32.96;27.02;101861.84;5204934;28;20044;-47
2022/09/05 12:59:03;;;;;;;3.80;1.00;;;;;;;33.09;27.10;101863.22;5204218;28;20445;-48
2022/09/05 13:01:40;;;;;;;4.20;1.90;;;;;;;33.23;26.86;101864.25;5197770;28;20055;-46
2022/09/05 13:04:20;;;;;;;6.15;1.40;;;;;;;33.42;26.36;101857.13;5209860;28;20366;-51
2022/09/05 13:07:00;;;;;;;5.63;1.60;;;;;;;33.54;26.42;101858.72;5193820;28;20048;-46
2022/09/05 13:09:37;;;;;;;6.80;2.20;;;;;;;33.47;26.84;101859.81;5197733;28;20044;-48
2022/09/05 13:12:18;;;;;;;5.70;1.30;;;;;;;33.45;26.83;101862.03;5198055;28;20325;-48
2022/09/05 13:15:02;;;;;;;6.28;1.75;;;;;;;33.39;27.14;101863.16;5199898;28;20053;-47